createdAt,value
2023-12-04T04:22:54.685Z,101130.22
2023-12-04T04:25:57.314Z,101130.22
2023-12-04T04:28:59.754Z,101128.28
2023-12-04T04:32:02.303Z,101124.13
2023-12-04T04:35:04.864Z,101132.31
2023-12-04T04:38:07.335Z,101127.81
2023-12-04T04:41:17.185Z,101131.41
2023-12-04T04:44:19.720Z,101141.06
2023-12-04T04:47:21.992Z,101141.69
2023-12-04T04:50:24.448Z,101148.06
2023-12-04T04:53:26.588Z,101152.81
2023-12-04T04:56:30.921Z,101147.12
2023-12-04T04:59:33.535Z,101145.72
2023-12-04T05:02:36.629Z,101145.78
2023-12-04T05:05:38.782Z,101157.59
2023-12-04T05:08:41.247Z,101154.88
2023-12-04T05:11:43.458Z,101150.69
2023-12-04T05:14:45.889Z,101161.94
2023-12-04T05:17:48.407Z,101163.78
2023-12-04T05:20:50.996Z,101157.06
2023-12-04T05:23:53.176Z,101155.34
2023-12-04T05:26:56.253Z,101150.72
2023-12-04T05:29:58.521Z,101158.87
2023-12-04T05:33:01.224Z,101150.22
2023-12-04T05:36:03.972Z,101152.13
2023-12-04T05:39:06.506Z,101152.88
2023-12-04T05:42:09.455Z,101145.78
2023-12-04T05:45:11.998Z,101146.91
2023-12-04T05:48:14.165Z,101149.66
2023-12-04T05:51:16.738Z,101153.88
2023-12-04T05:54:18.949Z,101161.16
2023-12-04T05:57:21.386Z,101161.19
2023-12-04T06:00:25.977Z,101160.62
2023-12-04T06:03:29.987Z,101166.72
2023-12-04T06:06:32.165Z,101160.28
2023-12-04T06:09:34.857Z,101163.28
2023-12-04T06:12:37.179Z,101173.25
2023-12-04T06:15:39.679Z,101168.19
2023-12-04T06:18:41.899Z,101170.75
2023-12-04T06:21:44.445Z,101175.31
2023-12-04T06:24:47.366Z,101167.22
2023-12-04T06:27:50.366Z,101168.03
2023-12-04T06:30:52.905Z,101178.44
2023-12-04T06:33:55.748Z,101182.81
2023-12-04T06:36:58.292Z,101176.16
2023-12-04T06:40:03.747Z,101186.88
2023-12-04T06:43:06.452Z,101183.72
2023-12-04T06:46:09.759Z,101188.25
2023-12-04T06:49:15.353Z,101186.00
2023-12-04T06:52:18.021Z,101188.53
2023-12-04T06:55:20.672Z,101192.00
2023-12-04T06:58:23.226Z,101186.28
2023-12-04T07:01:25.590Z,101192.66
2023-12-04T07:04:28.066Z,101192.22
2023-12-04T07:07:30.237Z,101194.34
2023-12-04T07:10:35.259Z,101198.88
2023-12-04T07:13:37.842Z,101202.31
2023-12-04T07:16:42.541Z,101199.56
2023-12-04T07:19:44.884Z,101198.06
2023-12-04T07:22:47.809Z,101194.06
2023-12-04T07:25:52.876Z,101191.88
2023-12-04T07:28:55.919Z,101186.41
2023-12-04T07:31:59.867Z,101184.31
2023-12-04T07:35:02.432Z,101183.66
2023-12-04T07:38:04.648Z,101196.94
2023-12-04T07:41:07.599Z,101195.06
2023-12-04T07:44:09.847Z,101193.88
2023-12-04T07:47:12.292Z,101196.53
2023-12-04T07:50:14.670Z,101202.31
2023-12-04T07:53:17.177Z,101195.75
2023-12-04T07:56:19.682Z,101202.78
2023-12-04T07:59:22.322Z,101199.31
2023-12-04T08:02:24.566Z,101208.41
2023-12-04T08:05:28.545Z,101190.94
2023-12-04T08:08:32.329Z,101198.91
2023-12-04T08:11:35.497Z,101212.25
2023-12-04T08:14:37.941Z,101220.47
2023-12-04T08:17:40.767Z,101223.53
2023-12-04T08:20:43.558Z,101251.88
2023-12-04T08:23:46.154Z,101219.97
2023-12-04T08:26:48.544Z,101192.69
2023-12-04T08:29:51.460Z,101210.50
2023-12-04T08:32:54.175Z,101188.03
2023-12-04T08:35:56.755Z,101200.09
2023-12-04T08:38:59.003Z,101178.22
2023-12-04T08:42:04.952Z,101184.25
2023-12-04T08:45:10.546Z,101233.87
2023-12-04T08:48:13.075Z,101214.34
2023-12-04T08:51:18.620Z,101179.41
2023-12-04T08:54:21.132Z,101210.37
2023-12-04T08:57:23.535Z,101259.50
2023-12-04T09:00:26.153Z,101237.59
2023-12-04T09:03:32.335Z,101188.59
2023-12-04T09:09:40.653Z,101199.16
2023-12-04T09:12:43.176Z,101219.84
2023-12-04T09:15:45.913Z,101232.47
2023-12-04T09:18:48.532Z,101227.53
2023-12-04T09:21:59.215Z,101271.53
2023-12-04T09:25:11.009Z,101237.59
2023-12-04T09:28:13.224Z,101196.31
2023-12-04T09:31:15.849Z,101250.78
2023-12-04T09:34:19.097Z,101257.47
2023-12-04T09:37:21.569Z,101256.16
2023-12-04T09:40:24.602Z,101254.31
2023-12-04T09:43:30.548Z,101230.13
2023-12-04T09:46:35.400Z,101243.84
2023-12-04T09:49:39.306Z,101300.78
2023-12-04T09:52:41.754Z,101288.69
2023-12-04T09:55:44.437Z,101212.66
2023-12-04T09:58:50.966Z,101245.81
2023-12-04T10:01:54.064Z,101268.75
2023-12-04T10:04:56.905Z,101281.91
2023-12-04T10:07:59.126Z,101302.19
2023-12-04T10:11:02.288Z,101348.22
2023-12-04T10:14:04.795Z,101251.53
2023-12-04T10:17:19.037Z,101153.00
2023-12-04T10:20:22.929Z,101106.25
2023-12-04T10:23:43.457Z,101098.81
2023-12-04T10:26:52.641Z,101077.44
2023-12-04T10:29:57.722Z,101114.72
2023-12-04T10:33:02.706Z,101104.03
2023-12-04T10:36:12.342Z,101106.50
2023-12-04T10:39:14.605Z,101208.12
2023-12-04T10:42:33.719Z,101246.09
2023-12-04T10:45:37.683Z,101320.16
2023-12-04T10:48:40.765Z,101306.50
2023-12-04T10:51:43.197Z,101289.97
2023-12-04T10:54:46.835Z,101338.03
2023-12-04T10:57:52.907Z,101422.34
2023-12-04T11:00:57.572Z,101488.44
2023-12-04T11:04:01.287Z,101482.31
2023-12-04T11:07:06.504Z,101511.09
2023-12-04T11:10:11.787Z,101460.22
2023-12-04T11:13:19.382Z,101467.87
2023-12-04T11:16:30.355Z,101704.78
2023-12-04T11:19:47.830Z,101906.62
2023-12-04T11:22:51.672Z,101966.47
2023-12-04T11:25:55.120Z,101943.09
2023-12-04T11:28:58.675Z,101924.75
2023-12-04T11:32:01.222Z,101838.78
2023-12-04T11:35:04.889Z,101586.09
2023-12-04T11:38:10.716Z,101443.25
2023-12-04T11:41:18.628Z,101589.37
2023-12-04T11:44:26.521Z,101813.09
2023-12-04T11:47:32.028Z,101924.44
2023-12-04T11:50:34.890Z,101936.81
2023-12-04T11:53:41.085Z,101841.84
2023-12-04T11:57:11.602Z,101740.06
2023-12-04T12:00:20.255Z,101671.97
2023-12-04T12:03:23.903Z,101621.34
2023-12-04T12:06:27.150Z,101569.41
2023-12-04T12:09:30.440Z,101464.56
2023-12-04T12:12:33.789Z,101232.81
2023-12-04T12:15:36.653Z,101013.94
2023-12-04T12:18:40.666Z,100891.47
2023-12-04T12:21:43.365Z,100805.00
2023-12-04T12:24:46.086Z,100757.09
2023-12-04T12:27:48.730Z,100750.88
2023-12-04T12:30:51.112Z,100772.78
2023-12-04T12:33:53.890Z,100787.97
2023-12-04T12:36:57.000Z,100825.22
2023-12-04T12:39:59.667Z,100824.78
2023-12-04T12:43:09.764Z,100846.63
2023-12-04T12:46:12.590Z,100837.53
2023-12-04T12:49:25.546Z,100862.34
2023-12-04T12:52:34.869Z,100862.97
2023-12-04T12:55:42.220Z,100869.91
2023-12-04T12:58:44.844Z,100883.22
2023-12-04T13:01:49.297Z,100877.53
2023-12-04T13:04:51.984Z,100886.00
2023-12-04T13:07:54.332Z,100894.31
2023-12-04T13:10:57.021Z,100892.38
2023-12-04T13:13:59.178Z,100890.56
2023-12-04T13:17:02.558Z,100898.44
2023-12-04T13:20:06.025Z,100909.62
2023-12-04T13:23:08.566Z,100892.53
2023-12-04T13:26:11.687Z,100904.19
2023-12-04T13:29:18.508Z,100901.16
2023-12-04T13:32:21.517Z,100900.22
2023-12-04T13:35:24.337Z,100902.97
2023-12-04T13:38:30.459Z,100891.47
2023-12-04T13:41:56.231Z,100888.16
2023-12-04T13:44:58.924Z,100889.66
2023-12-04T13:48:01.494Z,100887.34
2023-12-04T13:51:04.114Z,100890.53
2023-12-04T13:54:20.786Z,100887.06
2023-12-04T13:57:28.919Z,100878.28
2023-12-04T14:00:31.492Z,100871.06
2023-12-04T14:03:35.109Z,100875.72
2023-12-04T14:06:37.800Z,100881.03
2023-12-04T14:09:41.101Z,100876.44
2023-12-04T14:12:43.334Z,100883.84
2023-12-04T14:15:45.938Z,100883.78
2023-12-04T14:18:48.387Z,100879.72
2023-12-04T14:21:50.974Z,100878.97
2023-12-04T14:24:53.388Z,100868.38
2023-12-04T14:27:56.011Z,100869.53
2023-12-04T14:30:58.218Z,100852.88
2023-12-04T14:34:00.856Z,100858.44
2023-12-04T14:37:03.283Z,100865.19
2023-12-04T14:40:06.906Z,100862.94
2023-12-04T14:43:10.950Z,100843.53
2023-12-04T14:46:14.079Z,100844.44
2023-12-04T14:49:16.913Z,100840.53
2023-12-04T14:52:20.113Z,100840.81
2023-12-04T14:55:25.316Z,100838.41
2023-12-04T14:58:43.104Z,100847.59
2023-12-04T15:02:03.995Z,100839.00
2023-12-04T15:05:10.238Z,100847.88
2023-12-04T15:08:24.667Z,100839.97
2023-12-04T15:11:56.179Z,100843.28
2023-12-04T15:15:16.334Z,100847.94
2023-12-04T15:18:35.774Z,100839.12
2023-12-04T15:21:38.518Z,100845.53
2023-12-04T15:24:41.074Z,100838.06
2023-12-04T15:27:45.146Z,100824.38
2023-12-04T15:30:47.845Z,100823.56
2023-12-04T15:33:50.157Z,100809.75
2023-12-04T15:36:52.754Z,100815.78
2023-12-04T15:39:54.985Z,100814.28
2023-12-04T15:42:57.904Z,100813.91
2023-12-04T15:46:00.227Z,100813.97
2023-12-04T15:49:02.887Z,100817.25
2023-12-04T15:52:05.495Z,100819.13
2023-12-04T15:55:12.293Z,100817.56
2023-12-04T15:58:14.498Z,100805.50
2023-12-04T16:01:16.985Z,100808.59
2023-12-04T16:04:19.599Z,100812.34
2023-12-04T16:07:21.829Z,100814.34
2023-12-04T16:10:24.377Z,100820.34
2023-12-04T16:13:26.791Z,100813.69
2023-12-04T16:16:29.313Z,100805.81
2023-12-04T16:19:34.539Z,100801.50
2023-12-04T16:22:40.393Z,100807.13
2023-12-04T16:25:42.652Z,100809.53
2023-12-04T16:28:45.398Z,100811.91
2023-12-04T16:31:48.118Z,100811.72
2023-12-04T16:34:50.592Z,100812.12
2023-12-04T16:37:52.943Z,100809.38
